sensor_id;sensor_type;location;lat;lon;timestamp;pressure;altitude;pressure_sealevel;temperature;humidity
44313;BME280;38833;51.142;-0.974;2022-11-15T00:02:19;98875.58;;;23.76;36.27
44313;BME280;38833;51.142;-0.974;2022-11-15T00:04:53;98871.17;;;23.91;36.36
44313;BME280;38833;51.142;-0.974;2022-11-15T00:07:26;98864.78;;;23.80;36.54
44313;BME280;38833;51.142;-0.974;2022-11-15T00:09:59;98859.74;;;23.71;36.55
44313;BME280;38833;51.142;-0.974;2022-11-15T00:12:33;98857.20;;;23.81;36.46
44313;BME280;38833;51.142;-0.974;2022-11-15T00:15:07;98851.77;;;23.79;36.46
44313;BME280;38833;51.142;-0.974;2022-11-15T00:17:41;98849.30;;;23.76;36.46
44313;BME280;38833;51.142;-0.974;2022-11-15T00:20:14;98850.00;;;23.70;36.49
44313;BME280;38833;51.142;-0.974;2022-11-15T00:22:47;98846.52;;;23.68;36.52
44313;BME280;38833;51.142;-0.974;2022-11-15T00:25:21;98839.59;;;23.57;36.63
44313;BME280;38833;51.142;-0.974;2022-11-15T00:27:55;98833.30;;;23.71;36.38
44313;BME280;38833;51.142;-0.974;2022-11-15T00:30:29;98824.07;;;23.65;36.43
44313;BME280;38833;51.142;-0.974;2022-11-15T00:33:03;98816.90;;;23.71;36.38
44313;BME280;38833;51.142;-0.974;2022-11-15T00:35:37;98807.65;;;23.90;36.32
44313;BME280;38833;51.142;-0.974;2022-11-15T00:38:10;98809.42;;;23.59;36.39
44313;BME280;38833;51.142;-0.974;2022-11-15T00:40:43;98803.99;;;24.01;36.43
44313;BME280;38833;51.142;-0.974;2022-11-15T00:43:18;98800.48;;;23.49;36.50
44313;BME280;38833;51.142;-0.974;2022-11-15T00:45:52;98793.93;;;23.48;36.59
44313;BME280;38833;51.142;-0.974;2022-11-15T00:48:25;98786.13;;;23.44;36.53
44313;BME280;38833;51.142;-0.974;2022-11-15T00:50:58;98777.39;;;23.82;36.56
44313;BME280;38833;51.142;-0.974;2022-11-15T00:53:32;98765.43;;;23.47;36.44
44313;BME280;38833;51.142;-0.974;2022-11-15T00:56:06;98754.77;;;23.61;36.51
44313;BME280;38833;51.142;-0.974;2022-11-15T00:58:39;98745.91;;;23.61;36.48
44313;BME280;38833;51.142;-0.974;2022-11-15T01:01:14;98739.27;;;23.38;36.45
44313;BME280;38833;51.142;-0.974;2022-11-15T01:03:47;98731.61;;;23.36;36.46
44313;BME280;38833;51.142;-0.974;2022-11-15T01:06:20;98727.29;;;23.28;36.56
44313;BME280;38833;51.142;-0.974;2022-11-15T01:08:54;98724.86;;;23.44;36.59
44313;BME280;38833;51.142;-0.974;2022-11-15T01:11:27;98721.74;;;23.68;36.55
44313;BME280;38833;51.142;-0.974;2022-11-15T01:14:00;98727.49;;;23.51;36.48
44313;BME280;38833;51.142;-0.974;2022-11-15T01:16:34;98724.16;;;23.49;36.48
44313;BME280;38833;51.142;-0.974;2022-11-15T01:19:07;98720.48;;;23.25;36.47
44313;BME280;38833;51.142;-0.974;2022-11-15T01:21:40;98711.98;;;23.64;36.51
44313;BME280;38833;51.142;-0.974;2022-11-15T01:24:14;98704.27;;;23.22;36.47
44313;BME280;38833;51.142;-0.974;2022-11-15T01:26:47;98696.64;;;23.20;36.47
44313;BME280;38833;51.142;-0.974;2022-11-15T01:29:21;98685.60;;;23.10;36.57
44313;BME280;38833;51.142;-0.974;2022-11-15T01:31:54;98675.39;;;23.16;36.49
44313;BME280;38833;51.142;-0.974;2022-11-15T01:34:28;98665.36;;;23.02;36.61
44313;BME280;38833;51.142;-0.974;2022-11-15T01:37:01;98655.66;;;23.32;36.50
44313;BME280;38833;51.142;-0.974;2022-11-15T01:39:35;98656.76;;;23.07;36.53
44313;BME280;38833;51.142;-0.974;2022-11-15T01:42:12;98650.21;;;23.22;36.62
44313;BME280;38833;51.142;-0.974;2022-11-15T01:44:48;98651.93;;;22.97;36.63
44313;BME280;38833;51.142;-0.974;2022-11-15T01:47:25;98649.52;;;23.41;36.64
44313;BME280;38833;51.142;-0.974;2022-11-15T01:50:01;98643.99;;;23.08;36.47
44313;BME280;38833;51.142;-0.974;2022-11-15T01:52:36;98635.50;;;23.30;36.43
44313;BME280;38833;51.142;-0.974;2022-11-15T01:55:14;98632.18;;;23.29;36.44
44313;BME280;38833;51.142;-0.974;2022-11-15T01:57:51;98625.05;;;23.13;36.61
44313;BME280;38833;51.142;-0.974;2022-11-15T02:00:27;98615.32;;;23.05;36.45
44313;BME280;38833;51.142;-0.974;2022-11-15T02:03:01;98606.01;;;23.33;36.31
44313;BME280;38833;51.142;-0.974;2022-11-15T02:05:36;98604.91;;;23.19;36.51
44313;BME280;38833;51.142;-0.974;2022-11-15T02:08:11;98595.15;;;23.46;36.39
44313;BME280;38833;51.142;-0.974;2022-11-15T02:10:44;98592.61;;;23.32;36.58
44313;BME280;38833;51.142;-0.974;2022-11-15T02:13:18;98583.65;;;23.09;36.57
44313;BME280;38833;51.142;-0.974;2022-11-15T02:15:58;98586.23;;;23.32;36.57
44313;BME280;38833;51.142;-0.974;2022-11-15T02:18:35;98584.28;;;23.12;36.52
44313;BME280;38833;51.142;-0.974;2022-11-15T02:21:17;98581.86;;;23.14;36.49
44313;BME280;38833;51.142;-0.974;2022-11-15T02:25:08;98582.39;;;22.98;36.66
44313;BME280;38833;51.142;-0.974;2022-11-15T02:28:01;98568.58;;;23.25;36.62
44313;BME280;38833;51.142;-0.974;2022-11-15T02:30:42;98559.25;;;22.99;36.64
44313;BME280;38833;51.142;-0.974;2022-11-15T02:33:26;98549.66;;;23.20;36.62
44313;BME280;38833;51.142;-0.974;2022-11-15T02:36:06;98538.60;;;23.22;36.60
44313;BME280;38833;51.142;-0.974;2022-11-15T02:38:47;98534.31;;;22.93;36.66
44313;BME280;38833;51.142;-0.974;2022-11-15T02:41:31;98530.54;;;23.20;36.58
44313;BME280;38833;51.142;-0.974;2022-11-15T02:44:14;98536.46;;;22.77;36.56
44313;BME280;38833;51.142;-0.974;2022-11-15T02:46:52;98534.10;;;23.15;36.58
44313;BME280;38833;51.142;-0.974;2022-11-15T02:49:30;98529.92;;;23.13;36.60
44313;BME280;38833;51.142;-0.974;2022-11-15T02:52:05;98522.47;;;23.16;36.54
44313;BME280;38833;51.142;-0.974;2022-11-15T02:54:38;98510.37;;;22.68;36.58
44313;BME280;38833;51.142;-0.974;2022-11-15T02:57:15;98510.25;;;23.15;36.55
44313;BME280;38833;51.142;-0.974;2022-11-15T03:00:00;98501.21;;;23.14;36.55
44313;BME280;38833;51.142;-0.974;2022-11-15T03:02:56;98498.71;;;22.66;36.56
44313;BME280;38833;51.142;-0.974;2022-11-15T03:05:35;98493.71;;;23.12;36.53
44313;BME280;38833;51.142;-0.974;2022-11-15T03:08:17;98496.12;;;22.96;36.45
44313;BME280;38833;51.142;-0.974;2022-11-15T03:11:00;98493.95;;;22.94;36.45
44313;BME280;38833;51.142;-0.974;2022-11-15T03:13:39;98489.20;;;22.96;36.43
44313;BME280;38833;51.142;-0.974;2022-11-15T03:16:22;98485.28;;;22.92;36.46
44313;BME280;38833;51.142;-0.974;2022-11-15T03:19:02;98483.24;;;22.69;36.44
44313;BME280;38833;51.142;-0.974;2022-11-15T03:21:39;98481.12;;;23.22;36.33
44313;BME280;38833;51.142;-0.974;2022-11-15T03:24:14;98473.62;;;22.91;36.43
44313;BME280;38833;51.142;-0.974;2022-11-15T03:26:52;98472.07;;;22.86;36.51
44313;BME280;38833;51.142;-0.974;2022-11-15T03:29:29;98465.19;;;22.91;36.41
44313;BME280;38833;51.142;-0.974;2022-11-15T03:32:07;98465.78;;;22.90;36.43
44313;BME280;38833;51.142;-0.974;2022-11-15T03:34:47;98465.68;;;23.03;36.53
44313;BME280;38833;51.142;-0.974;2022-11-15T03:37:34;98459.96;;;23.03;36.54
44313;BME280;38833;51.142;-0.974;2022-11-15T03:40:11;98459.33;;;22.97;36.60
44313;BME280;38833;51.142;-0.974;2022-11-15T03:42:48;98448.43;;;22.94;36.63
44313;BME280;38833;51.142;-0.974;2022-11-15T03:45:29;98444.91;;;22.78;36.52
44313;BME280;38833;51.142;-0.974;2022-11-15T03:48:10;98437.10;;;23.01;36.55
44313;BME280;38833;51.142;-0.974;2022-11-15T03:50:47;98430.91;;;22.82;36.74
44313;BME280;38833;51.142;-0.974;2022-11-15T03:53:21;98415.03;;;22.95;36.62
44313;BME280;38833;51.142;-0.974;2022-11-15T03:55:55;98418.84;;;22.67;36.65
44313;BME280;38833;51.142;-0.974;2022-11-15T03:58:28;98409.56;;;22.88;36.64
44313;BME280;38833;51.142;-0.974;2022-11-15T04:01:02;98401.96;;;22.91;36.62
44313;BME280;38833;51.142;-0.974;2022-11-15T04:03:35;98397.33;;;22.88;36.67
44313;BME280;38833;51.142;-0.974;2022-11-15T04:06:08;98387.82;;;22.88;36.64
44313;BME280;38833;51.142;-0.974;2022-11-15T04:08:42;98375.69;;;22.61;36.69
44313;BME280;38833;51.142;-0.974;2022-11-15T04:11:15;98370.71;;;22.80;36.73
44313;BME280;38833;51.142;-0.974;2022-11-15T04:13:49;98367.08;;;22.84;36.67
44313;BME280;38833;51.142;-0.974;2022-11-15T04:16:23;98359.96;;;22.83;36.66
44313;BME280;38833;51.142;-0.974;2022-11-15T04:18:56;98361.79;;;22.82;36.67
44313;BME280;38833;51.142;-0.974;2022-11-15T04:21:30;98359.00;;;22.78;36.72
44313;BME280;38833;51.142;-0.974;2022-11-15T04:24:04;98350.86;;;22.73;36.77
44313;BME280;38833;51.142;-0.974;2022-11-15T04:26:38;98348.33;;;22.56;36.67
44313;BME280;38833;51.142;-0.974;2022-11-15T04:29:11;98340.01;;;22.62;36.62
44313;BME280;38833;51.142;-0.974;2022-11-15T04:31:44;98329.24;;;22.82;36.60
44313;BME280;38833;51.142;-0.974;2022-11-15T04:34:18;98333.71;;;22.83;36.58
44313;BME280;38833;51.142;-0.974;2022-11-15T04:36:51;98331.24;;;22.99;36.70
44313;BME280;38833;51.142;-0.974;2022-11-15T04:39:24;98328.07;;;22.79;36.61
44313;BME280;38833;51.142;-0.974;2022-11-15T04:41:58;98329.48;;;22.76;36.61
44313;BME280;38833;51.142;-0.974;2022-11-15T04:44:31;98324.85;;;22.80;36.57
44313;BME280;38833;51.142;-0.974;2022-11-15T04:47:04;98321.26;;;22.80;36.55
44313;BME280;38833;51.142;-0.974;2022-11-15T04:49:38;98315.01;;;23.05;36.57
44313;BME280;38833;51.142;-0.974;2022-11-15T04:52:11;98314.88;;;23.02;36.62
44313;BME280;38833;51.142;-0.974;2022-11-15T04:54:44;98312.83;;;22.45;36.70
44313;BME280;38833;51.142;-0.974;2022-11-15T04:57:18;98302.62;;;22.72;36.60
44313;BME280;38833;51.142;-0.974;2022-11-15T04:59:51;98298.74;;;22.72;36.63
44313;BME280;38833;51.142;-0.974;2022-11-15T05:02:25;98290.08;;;22.21;36.70
44313;BME280;38833;51.142;-0.974;2022-11-15T05:04:58;98278.57;;;22.79;36.50
44313;BME280;38833;51.142;-0.974;2022-11-15T05:07:31;98266.00;;;22.75;36.51
44313;BME280;38833;51.142;-0.974;2022-11-15T05:10:05;98267.68;;;22.64;36.65
44313;BME280;38833;51.142;-0.974;2022-11-15T05:12:38;98265.29;;;22.57;36.72
44313;BME280;38833;51.142;-0.974;2022-11-15T05:15:11;98256.60;;;22.57;36.71
44313;BME280;38833;51.142;-0.974;2022-11-15T05:17:45;98247.97;;;22.57;36.70
44313;BME280;38833;51.142;-0.974;2022-11-15T05:20:18;98238.43;;;22.60;36.66
44313;BME280;38833;51.142;-0.974;2022-11-15T05:22:52;98242.97;;;22.53;36.74
44313;BME280;38833;51.142;-0.974;2022-11-15T05:25:26;98231.52;;;22.56;36.70
44313;BME280;38833;51.142;-0.974;2022-11-15T05:27:59;98231.54;;;22.59;36.63
44313;BME280;38833;51.142;-0.974;2022-11-15T05:30:32;98225.04;;;22.54;36.70
44313;BME280;38833;51.142;-0.974;2022-11-15T05:33:06;98216.26;;;22.45;36.78
44313;BME280;38833;51.142;-0.974;2022-11-15T05:35:42;98218.25;;;22.24;37.13
44313;BME280;38833;51.142;-0.974;2022-11-15T05:38:18;98215.22;;;22.28;37.22
44313;BME280;38833;51.142;-0.974;2022-11-15T05:40:51;98210.57;;;22.30;37.17
44313;BME280;38833;51.142;-0.974;2022-11-15T05:43:25;98203.44;;;22.45;36.98
44313;BME280;38833;51.142;-0.974;2022-11-15T05:45:58;98196.04;;;22.33;37.09
44313;BME280;38833;51.142;-0.974;2022-11-15T05:48:33;98194.38;;;22.21;37.36
44313;BME280;38833;51.142;-0.974;2022-11-15T05:51:07;98186.80;;;22.26;37.43
44313;BME280;38833;51.142;-0.974;2022-11-15T05:53:41;98175.90;;;22.53;37.18
44313;BME280;38833;51.142;-0.974;2022-11-15T05:56:14;98172.20;;;22.57;37.28
44313;BME280;38833;51.142;-0.974;2022-11-15T05:58:48;98167.76;;;22.52;37.20
44313;BME280;38833;51.142;-0.974;2022-11-15T06:01:21;98163.27;;;22.69;37.10
44313;BME280;38833;51.142;-0.974;2022-11-15T06:03:54;98158.89;;;23.02;37.09
44313;BME280;38833;51.142;-0.974;2022-11-15T06:06:28;98153.98;;;22.91;37.10
44313;BME280;38833;51.142;-0.974;2022-11-15T06:09:01;98151.94;;;23.26;37.10
44313;BME280;38833;51.142;-0.974;2022-11-15T06:11:34;98150.78;;;23.06;37.18
44313;BME280;38833;51.142;-0.974;2022-11-15T06:14:07;98145.07;;;22.94;37.21
44313;BME280;38833;51.142;-0.974;2022-11-15T06:16:41;98145.90;;;22.96;37.32
44313;BME280;38833;51.142;-0.974;2022-11-15T06:19:14;98142.46;;;23.33;37.27
44313;BME280;38833;51.142;-0.974;2022-11-15T06:21:47;98131.95;;;23.10;37.44
44313;BME280;38833;51.142;-0.974;2022-11-15T06:24:20;98128.51;;;23.39;37.47
44313;BME280;38833;51.142;-0.974;2022-11-15T06:26:54;98120.56;;;23.27;37.43
44313;BME280;38833;51.142;-0.974;2022-11-15T06:29:27;98125.08;;;23.27;37.51
44313;BME280;38833;51.142;-0.974;2022-11-15T06:32:00;98121.81;;;23.42;37.40
44313;BME280;38833;51.142;-0.974;2022-11-15T06:34:33;98117.30;;;23.41;37.47
44313;BME280;38833;51.142;-0.974;2022-11-15T06:37:06;98115.03;;;23.48;37.40
44313;BME280;38833;51.142;-0.974;2022-11-15T06:39:40;98112.65;;;23.59;37.31
44313;BME280;38833;51.142;-0.974;2022-11-15T06:42:13;98103.60;;;23.68;37.22
44313;BME280;38833;51.142;-0.974;2022-11-15T06:44:46;98098.14;;;23.72;37.19
44313;BME280;38833;51.142;-0.974;2022-11-15T06:47:19;98103.26;;;23.81;37.09
44313;BME280;38833;51.142;-0.974;2022-11-15T06:49:52;98096.16;;;23.86;37.06
44313;BME280;38833;51.142;-0.974;2022-11-15T06:52:26;98088.92;;;23.87;37.04
44313;BME280;38833;51.142;-0.974;2022-11-15T06:54:59;98091.58;;;23.61;37.09
44313;BME280;38833;51.142;-0.974;2022-11-15T06:57:32;98088.93;;;23.92;37.04
44313;BME280;38833;51.142;-0.974;2022-11-15T07:00:06;98088.80;;;23.97;37.02
44313;BME280;38833;51.142;-0.974;2022-11-15T07:02:40;98090.71;;;23.80;36.89
44313;BME280;38833;51.142;-0.974;2022-11-15T07:05:14;98084.71;;;24.01;36.93
44313;BME280;38833;51.142;-0.974;2022-11-15T07:07:52;98094.85;;;24.04;36.92
44313;BME280;38833;51.142;-0.974;2022-11-15T07:10:26;98088.63;;;23.80;36.91
44313;BME280;38833;51.142;-0.974;2022-11-15T07:12:59;98082.85;;;24.16;36.78
44313;BME280;38833;51.142;-0.974;2022-11-15T07:15:32;98083.56;;;23.88;36.78
44313;BME280;38833;51.142;-0.974;2022-11-15T07:18:06;98074.46;;;23.91;36.74
44313;BME280;38833;51.142;-0.974;2022-11-15T07:20:39;98069.65;;;24.06;36.57
44313;BME280;38833;51.142;-0.974;2022-11-15T07:23:12;98061.63;;;24.08;36.57
44313;BME280;38833;51.142;-0.974;2022-11-15T07:25:45;98062.07;;;23.91;36.79
44313;BME280;38833;51.142;-0.974;2022-11-15T07:28:18;98067.88;;;24.08;36.59
44313;BME280;38833;51.142;-0.974;2022-11-15T07:30:52;98064.12;;;24.04;36.68
44313;BME280;38833;51.142;-0.974;2022-11-15T07:33:25;98064.00;;;23.93;36.57
44313;BME280;38833;51.142;-0.974;2022-11-15T07:35:59;98058.72;;;24.53;36.48
44313;BME280;38833;51.142;-0.974;2022-11-15T07:38:33;98054.64;;;24.55;36.50
44313;BME280;38833;51.142;-0.974;2022-11-15T07:41:06;98058.21;;;24.41;36.38
44313;BME280;38833;51.142;-0.974;2022-11-15T07:43:40;98055.68;;;24.35;36.50
44313;BME280;38833;51.142;-0.974;2022-11-15T07:46:13;98051.54;;;24.15;36.53
44313;BME280;38833;51.142;-0.974;2022-11-15T07:48:46;98049.48;;;24.39;36.53
44313;BME280;38833;51.142;-0.974;2022-11-15T07:51:20;98047.55;;;24.41;36.50
44313;BME280;38833;51.142;-0.974;2022-11-15T07:53:53;98037.61;;;24.43;36.52
44313;BME280;38833;51.142;-0.974;2022-11-15T07:56:26;98041.98;;;24.21;36.51
44313;BME280;38833;51.142;-0.974;2022-11-15T07:58:59;98041.60;;;24.44;36.50
44313;BME280;38833;51.142;-0.974;2022-11-15T08:01:33;98028.24;;;24.42;36.52
44313;BME280;38833;51.142;-0.974;2022-11-15T08:04:06;98032.99;;;24.42;36.53
44313;BME280;38833;51.142;-0.974;2022-11-15T08:06:39;98026.91;;;24.52;36.39
44313;BME280;38833;51.142;-0.974;2022-11-15T08:09:12;98025.32;;;24.26;36.45
44313;BME280;38833;51.142;-0.974;2022-11-15T08:11:46;98012.66;;;24.54;36.34
44313;BME280;38833;51.142;-0.974;2022-11-15T08:14:19;98015.78;;;24.36;36.25
44313;BME280;38833;51.142;-0.974;2022-11-15T08:16:52;98006.88;;;24.56;36.24
44313;BME280;38833;51.142;-0.974;2022-11-15T08:19:27;98012.27;;;24.58;36.19
44313;BME280;38833;51.142;-0.974;2022-11-15T08:22:00;98003.58;;;24.57;36.16
44313;BME280;38833;51.142;-0.974;2022-11-15T08:24:33;98002.41;;;24.07;36.20
44313;BME280;38833;51.142;-0.974;2022-11-15T08:27:07;97991.21;;;24.35;36.07
44313;BME280;38833;51.142;-0.974;2022-11-15T08:29:41;97990.35;;;24.29;36.11
44313;BME280;38833;51.142;-0.974;2022-11-15T08:32:15;97985.07;;;24.26;36.11
44313;BME280;38833;51.142;-0.974;2022-11-15T08:34:48;97986.54;;;24.36;35.97
44313;BME280;38833;51.142;-0.974;2022-11-15T08:37:21;97978.81;;;24.34;36.04
44313;BME280;38833;51.142;-0.974;2022-11-15T08:39:54;97977.17;;;24.22;36.17
44313;BME280;38833;51.142;-0.974;2022-11-15T08:42:28;97972.53;;;24.20;36.14
44313;BME280;38833;51.142;-0.974;2022-11-15T08:45:01;97960.57;;;24.21;36.04
44313;BME280;38833;51.142;-0.974;2022-11-15T08:47:34;97963.88;;;24.32;35.87
44313;BME280;38833;51.142;-0.974;2022-11-15T08:50:08;97959.45;;;24.13;36.04
44313;BME280;38833;51.142;-0.974;2022-11-15T08:52:42;97946.03;;;24.20;35.92
44313;BME280;38833;51.142;-0.974;2022-11-15T08:55:15;97952.60;;;24.64;35.69
44313;BME280;38833;51.142;-0.974;2022-11-15T08:57:48;97954.34;;;24.06;36.87
44313;BME280;38833;51.142;-0.974;2022-11-15T09:00:22;97955.16;;;24.78;36.13
44313;BME280;38833;51.142;-0.974;2022-11-15T09:02:56;97930.54;;;24.96;35.89
44313;BME280;38833;51.142;-0.974;2022-11-15T09:05:29;97936.13;;;25.07;35.50
44313;BME280;38833;51.142;-0.974;2022-11-15T09:08:03;97933.60;;;25.19;35.37
44313;BME280;38833;51.142;-0.974;2022-11-15T09:10:36;97933.53;;;25.16;35.12
44313;BME280;38833;51.142;-0.974;2022-11-15T09:13:09;97921.86;;;24.78;35.43
44313;BME280;38833;51.142;-0.974;2022-11-15T09:15:43;97918.02;;;25.09;35.30
44313;BME280;38833;51.142;-0.974;2022-11-15T09:18:16;97913.49;;;25.42;34.85
44313;BME280;38833;51.142;-0.974;2022-11-15T09:20:49;97899.97;;;25.24;34.45
44313;BME280;38833;51.142;-0.974;2022-11-15T09:23:22;97885.24;;;25.16;34.78
44313;BME280;38833;51.142;-0.974;2022-11-15T09:25:59;97882.78;;;25.06;34.56
44313;BME280;38833;51.142;-0.974;2022-11-15T09:28:33;97887.38;;;25.32;34.59
44313;BME280;38833;51.142;-0.974;2022-11-15T09:31:07;97873.89;;;25.33;34.15
44313;BME280;38833;51.142;-0.974;2022-11-15T09:33:43;97878.42;;;25.32;33.75
44313;BME280;38833;51.142;-0.974;2022-11-15T09:36:16;97874.23;;;25.21;33.57
44313;BME280;38833;51.142;-0.974;2022-11-15T09:38:49;97871.34;;;25.22;33.66
44313;BME280;38833;51.142;-0.974;2022-11-15T09:41:38;97867.40;;;24.97;33.91
44313;BME280;38833;51.142;-0.974;2022-11-15T09:44:33;97863.64;;;24.87;34.30
44313;BME280;38833;51.142;-0.974;2022-11-15T09:47:47;97851.75;;;24.59;34.38
44313;BME280;38833;51.142;-0.974;2022-11-15T09:50:31;97857.56;;;25.11;33.69
44313;BME280;38833;51.142;-0.974;2022-11-15T09:53:05;97853.00;;;24.74;33.93
44313;BME280;38833;51.142;-0.974;2022-11-15T09:55:47;97852.06;;;25.00;34.60
44313;BME280;38833;51.142;-0.974;2022-11-15T09:58:32;97839.21;;;24.74;34.40
44313;BME280;38833;51.142;-0.974;2022-11-15T10:01:14;97835.62;;;24.28;35.25
44313;BME280;38833;51.142;-0.974;2022-11-15T10:03:50;97828.46;;;25.27;34.52
44313;BME280;38833;51.142;-0.974;2022-11-15T10:06:25;97823.66;;;25.18;34.27
44313;BME280;38833;51.142;-0.974;2022-11-15T10:09:03;97814.68;;;25.69;34.09
44313;BME280;38833;51.142;-0.974;2022-11-15T10:11:39;97811.42;;;25.66;34.07
44313;BME280;38833;51.142;-0.974;2022-11-15T10:14:15;97808.78;;;25.96;34.16
44313;BME280;38833;51.142;-0.974;2022-11-15T10:17:01;97800.56;;;25.86;34.10
44313;BME280;38833;51.142;-0.974;2022-11-15T10:19:50;97800.94;;;26.08;34.29
44313;BME280;38833;51.142;-0.974;2022-11-15T10:22:27;97794.41;;;25.56;34.27
44313;BME280;38833;51.142;-0.974;2022-11-15T10:25:15;97791.93;;;25.91;34.22
44313;BME280;38833;51.142;-0.974;2022-11-15T10:27:54;97787.87;;;25.92;34.65
44313;BME280;38833;51.142;-0.974;2022-11-15T10:30:33;97789.75;;;25.74;34.69
44313;BME280;38833;51.142;-0.974;2022-11-15T10:33:18;97780.70;;;25.59;34.98
44313;BME280;38833;51.142;-0.974;2022-11-15T10:36:28;97771.74;;;25.71;34.95
44313;BME280;38833;51.142;-0.974;2022-11-15T10:39:03;97775.60;;;25.87;34.78
44313;BME280;38833;51.142;-0.974;2022-11-15T10:41:39;97781.92;;;25.97;34.68
44313;BME280;38833;51.142;-0.974;2022-11-15T10:44:20;97782.28;;;25.91;34.75
44313;BME280;38833;51.142;-0.974;2022-11-15T10:47:27;97770.81;;;25.76;34.65
44313;BME280;38833;51.142;-0.974;2022-11-15T10:50:04;97761.55;;;26.18;34.42
44313;BME280;38833;51.142;-0.974;2022-11-15T10:52:45;97761.53;;;26.04;34.18
44313;BME280;38833;51.142;-0.974;2022-11-15T10:55:24;97753.88;;;26.00;34.16
44313;BME280;38833;51.142;-0.974;2022-11-15T10:58:04;97737.71;;;26.30;34.18
44313;BME280;38833;51.142;-0.974;2022-11-15T11:00:38;97734.29;;;26.07;34.08
44313;BME280;38833;51.142;-0.974;2022-11-15T11:03:27;97730.50;;;26.16;33.99
44313;BME280;38833;51.142;-0.974;2022-11-15T11:06:07;97729.96;;;26.04;34.52
44313;BME280;38833;51.142;-0.974;2022-11-15T11:08:41;97712.08;;;26.22;34.59
44313;BME280;38833;51.142;-0.974;2022-11-15T11:11:44;97697.66;;;25.99;34.70
44313;BME280;38833;51.142;-0.974;2022-11-15T11:14:20;97692.69;;;26.01;34.99
44313;BME280;38833;51.142;-0.974;2022-11-15T11:17:02;97677.98;;;25.80;34.96
44313;BME280;38833;51.142;-0.974;2022-11-15T11:19:46;97677.88;;;25.87;34.83
44313;BME280;38833;51.142;-0.974;2022-11-15T11:22:27;97674.41;;;25.82;34.89
44313;BME280;38833;51.142;-0.974;2022-11-15T11:25:11;97678.95;;;25.86;34.39
44313;BME280;38833;51.142;-0.974;2022-11-15T11:27:59;97658.48;;;25.95;34.25
44313;BME280;38833;51.142;-0.974;2022-11-15T11:30:45;97661.37;;;26.12;34.59
44313;BME280;38833;51.142;-0.974;2022-11-15T11:33:22;97659.58;;;25.95;34.31
44313;BME280;38833;51.142;-0.974;2022-11-15T11:36:08;97645.53;;;25.82;34.49
44313;BME280;38833;51.142;-0.974;2022-11-15T11:38:51;97643.85;;;26.13;34.37
44313;BME280;38833;51.142;-0.974;2022-11-15T11:41:43;97636.39;;;25.91;34.30
44313;BME280;38833;51.142;-0.974;2022-11-15T11:44:28;97638.94;;;25.90;34.30
44313;BME280;38833;51.142;-0.974;2022-11-15T11:47:09;97630.68;;;26.22;33.93
44313;BME280;38833;51.142;-0.974;2022-11-15T11:49:48;97626.75;;;26.24;33.83
44313;BME280;38833;51.142;-0.974;2022-11-15T11:52:26;97623.39;;;26.21;33.89
44313;BME280;38833;51.142;-0.974;2022-11-15T11:55:11;97622.43;;;26.13;34.04
44313;BME280;38833;51.142;-0.974;2022-11-15T11:57:50;97601.23;;;26.07;34.03
44313;BME280;38833;51.142;-0.974;2022-11-15T12:00:27;97610.87;;;26.28;34.43
44313;BME280;38833;51.142;-0.974;2022-11-15T12:03:07;97619.78;;;26.01;34.18
44313;BME280;38833;51.142;-0.974;2022-11-15T12:05:44;97626.70;;;26.00;34.34
44313;BME280;38833;51.142;-0.974;2022-11-15T12:08:27;97603.11;;;26.14;34.09
44313;BME280;38833;51.142;-0.974;2022-11-15T12:11:09;97624.14;;;26.30;33.84
44313;BME280;38833;51.142;-0.974;2022-11-15T12:13:49;97620.48;;;26.16;34.22
44313;BME280;38833;51.142;-0.974;2022-11-15T12:16:27;97625.73;;;26.07;34.25
44313;BME280;38833;51.142;-0.974;2022-11-15T12:19:02;97627.30;;;24.84;34.38
44313;BME280;38833;51.142;-0.974;2022-11-15T12:21:43;97639.42;;;24.47;35.80
44313;BME280;38833;51.142;-0.974;2022-11-15T12:24:19;97647.79;;;23.89;36.23
44313;BME280;38833;51.142;-0.974;2022-11-15T12:26:59;97640.93;;;24.10;35.89
44313;BME280;38833;51.142;-0.974;2022-11-15T12:29:37;97653.18;;;23.93;36.44
44313;BME280;38833;51.142;-0.974;2022-11-15T12:32:27;97664.63;;;23.84;36.48
44313;BME280;38833;51.142;-0.974;2022-11-15T12:35:03;97666.23;;;23.81;36.77
44313;BME280;38833;51.142;-0.974;2022-11-15T12:37:49;97672.63;;;23.26;36.92
44313;BME280;38833;51.142;-0.974;2022-11-15T12:40:25;97674.74;;;23.47;36.94
44313;BME280;38833;51.142;-0.974;2022-11-15T12:43:04;97681.12;;;23.42;37.02
44313;BME280;38833;51.142;-0.974;2022-11-15T12:45:38;97686.64;;;23.32;37.11
44313;BME280;38833;51.142;-0.974;2022-11-15T12:48:55;97692.89;;;23.61;37.00
44313;BME280;38833;51.142;-0.974;2022-11-15T12:52:06;97678.08;;;23.75;37.19
44313;BME280;38833;51.142;-0.974;2022-11-15T12:55:31;97678.92;;;23.99;36.68
44313;BME280;38833;51.142;-0.974;2022-11-15T12:58:27;97684.90;;;23.95;36.08
44313;BME280;38833;51.142;-0.974;2022-11-15T13:01:01;97685.63;;;24.29;35.85
44313;BME280;38833;51.142;-0.974;2022-11-15T13:03:34;97685.34;;;24.00;35.85
44313;BME280;38833;51.142;-0.974;2022-11-15T13:06:33;97684.60;;;23.98;35.85
44313;BME280;38833;51.142;-0.974;2022-11-15T13:10:30;97700.04;;;24.09;36.13
44313;BME280;38833;51.142;-0.974;2022-11-15T13:13:08;97691.53;;;23.45;35.96
44313;BME280;38833;51.142;-0.974;2022-11-15T13:15:59;97690.86;;;23.85;36.33
44313;BME280;38833;51.142;-0.974;2022-11-15T13:18:36;97695.70;;;23.72;36.17
44313;BME280;38833;51.142;-0.974;2022-11-15T13:21:26;97691.14;;;23.62;36.33
44313;BME280;38833;51.142;-0.974;2022-11-15T13:23:59;97690.70;;;23.40;36.62
44313;BME280;38833;51.142;-0.974;2022-11-15T13:26:32;97687.53;;;23.42;36.58
44313;BME280;38833;51.142;-0.974;2022-11-15T13:29:15;97685.26;;;23.50;36.46
44313;BME280;38833;51.142;-0.974;2022-11-15T13:31:49;97687.70;;;23.45;36.53
44313;BME280;38833;51.142;-0.974;2022-11-15T13:34:27;97685.66;;;23.40;36.53
44313;BME280;38833;51.142;-0.974;2022-11-15T13:37:01;97691.56;;;23.46;36.43
44313;BME280;38833;51.142;-0.974;2022-11-15T13:39:35;97685.23;;;23.43;36.41
44313;BME280;38833;51.142;-0.974;2022-11-15T13:42:14;97696.91;;;23.40;36.46
44313;BME280;38833;51.142;-0.974;2022-11-15T13:44:55;97702.03;;;23.42;36.53